Time;durP1;ratioP1;P1;durP2;ratioP2;P2;SDS_P1;SDS_P2;PMS_P1;PMS_P2;Temp;Humidity;BMP_temperature;BMP_pressure;BME280_temperature;BME280_humidity;BME280_pressure;Samples;Min_cycle;Max_cycle;Signal;HPM_P1;HPM_P2
2024/01/14 00:02:09;;;;;;;;;;;16.50;57.60;;;;;;10285801;28;88257;-63
2024/01/14 00:07:11;;;;;;;;;;;16.40;57.60;;;;;;10281827;28;89148;-63
2024/01/14 00:12:12;;;;;;;;;;;16.40;57.60;;;;;;10280891;28;88494;-63
2024/01/14 00:17:14;;;;;;;;;;;16.40;58.70;;;;;;10283835;28;90137;-63
2024/01/14 00:22:16;;;;;;;;;;;16.30;57.70;;;;;;10302388;28;89408;-63
2024/01/14 00:27:18;;;;;;;;;;;16.30;57.60;;;;;;10313844;28;88147;-63
2024/01/14 00:32:22;;;;;;;;;;;16.30;57.60;;;;;;10281769;28;89628;-63
2024/01/14 00:37:24;;;;;;;;;;;16.30;57.60;;;;;;10265315;28;89332;-63
2024/01/14 00:42:26;;;;;;;;;;;16.20;57.50;;;;;;10282350;28;89512;-63
2024/01/14 00:47:31;;;;;;;;;;;16.20;57.50;;;;;;10281761;28;92724;-63
2024/01/14 00:52:33;;;;;;;;;;;16.20;57.60;;;;;;10285600;28;88494;-63
2024/01/14 00:57:35;;;;;;;;;;;16.20;57.40;;;;;;10275260;28;90024;-63
2024/01/14 01:02:37;;;;;;;;;;;16.20;57.40;;;;;;10284619;28;88520;-63
2024/01/14 01:07:39;;;;;;;;;;;16.20;57.30;;;;;;10279117;28;90355;-63
2024/01/14 01:12:41;;;;;;;;;;;16.20;57.00;;;;;;10280032;28;90282;-63
2024/01/14 01:17:43;;;;;;;;;;;16.30;56.90;;;;;;10276078;28;89264;-63
2024/01/14 01:22:44;;;;;;;;;;;16.30;56.60;;;;;;10283654;28;89295;-62
2024/01/14 01:27:46;;;;;;;;;;;16.30;56.60;;;;;;10289340;28;89878;-62
2024/01/14 01:32:49;;;;;;;;;;;16.30;56.40;;;;;;10270963;28;89836;-63
2024/01/14 01:37:51;;;;;;;;;;;16.30;56.50;;;;;;10270014;28;89450;-63
2024/01/14 01:42:55;;;;;;;;;;;16.30;56.40;;;;;;10284759;28;88394;-63
2024/01/14 01:47:57;;;;;;;;;;;16.30;56.40;;;;;;10284747;28;90006;-63
2024/01/14 01:52:59;;;;;;;;;;;16.30;56.40;;;;;;10283567;28;90267;-63
2024/01/14 01:58:01;;;;;;;;;;;16.20;56.40;;;;;;10297415;28;89770;-63
2024/01/14 02:03:03;;;;;;;;;;;16.20;56.40;;;;;;10640207;22;89390;-54
2024/01/14 02:08:05;;;;;;;;;;;16.20;56.40;;;;;;10317331;28;89413;-53
2024/01/14 02:13:07;;;;;;;;;;;16.20;56.40;;;;;;10326598;28;89662;-54
2024/01/14 02:18:09;;;;;;;;;;;16.20;56.50;;;;;;10325288;28;91023;-54
2024/01/14 02:23:13;;;;;;;;;;;16.10;56.40;;;;;;10326315;28;90288;-54
2024/01/14 02:28:15;;;;;;;;;;;16.10;56.40;;;;;;10326358;28;89477;-53
2024/01/14 02:33:17;;;;;;;;;;;16.10;56.50;;;;;;10332049;28;89202;-53
2024/01/14 02:38:19;;;;;;;;;;;16.20;56.30;;;;;;10317353;28;89333;-53
2024/01/14 02:43:20;;;;;;;;;;;16.30;56.20;;;;;;10319469;28;90254;-55
2024/01/14 02:48:22;;;;;;;;;;;16.30;56.10;;;;;;10327163;28;89747;-54
2024/01/14 02:53:24;;;;;;;;;;;16.30;56.00;;;;;;10328127;28;89514;-54
2024/01/14 02:58:26;;;;;;;;;;;16.20;55.90;;;;;;10316789;28;89665;-53
2024/01/14 03:03:28;;;;;;;;;;;16.20;55.90;;;;;;10327219;28;89759;-53
2024/01/14 03:08:30;;;;;;;;;;;16.10;55.90;;;;;;10326107;28;89650;-54
2024/01/14 03:13:31;;;;;;;;;;;16.10;56.00;;;;;;10319425;28;90133;-54
2024/01/14 03:18:33;;;;;;;;;;;16.10;55.90;;;;;;10320160;28;89237;-54
2024/01/14 03:23:35;;;;;;;;;;;16.10;55.90;;;;;;10325288;28;88407;-55
2024/01/14 03:28:37;;;;;;;;;;;16.10;56.00;;;;;;10332123;28;88918;-53
2024/01/14 03:33:39;;;;;;;;;;;16.00;56.00;;;;;;10320683;28;89083;-51
2024/01/14 03:38:41;;;;;;;;;;;16.00;56.10;;;;;;10330915;28;90508;-54
2024/01/14 03:43:43;;;;;;;;;;;16.00;56.20;;;;;;10331833;28;89020;-53
2024/01/14 03:48:45;;;;;;;;;;;15.90;56.20;;;;;;10329273;28;89041;-53
2024/01/14 03:53:48;;;;;;;;;;;16.00;56.30;;;;;;10310318;28;89309;-52
2024/01/14 03:58:50;;;;;;;;;;;16.00;56.10;;;;;;10322105;28;89567;-51
2024/01/14 04:03:52;;;;;;;;;;;16.10;56.00;;;;;;10336091;28;88959;-51
2024/01/14 04:08:53;;;;;;;;;;;16.10;55.80;;;;;;10327989;28;90085;-52
2024/01/14 04:13:55;;;;;;;;;;;16.10;55.70;;;;;;10328627;28;88230;-51
2024/01/14 04:18:57;;;;;;;;;;;16.00;55.60;;;;;;10327892;28;90090;-53
2024/01/14 04:23:59;;;;;;;;;;;16.10;55.70;;;;;;10331327;28;90162;-51
2024/01/14 04:29:01;;;;;;;;;;;16.00;55.70;;;;;;10325435;28;89638;-48
2024/01/14 04:34:03;;;;;;;;;;;16.00;55.80;;;;;;10327185;28;89045;-51
2024/01/14 04:39:05;;;;;;;;;;;16.00;55.80;;;;;;10327433;28;90145;-50
2024/01/14 04:44:07;;;;;;;;;;;15.90;55.90;;;;;;10327926;28;89689;-52
2024/01/14 04:49:09;;;;;;;;;;;15.90;55.90;;;;;;10328775;28;89539;-51
2024/01/14 04:54:11;;;;;;;;;;;15.90;56.00;;;;;;10325220;28;89043;-51
2024/01/14 04:59:13;;;;;;;;;;;15.80;56.00;;;;;;10326042;28;89707;-51
2024/01/14 05:04:16;;;;;;;;;;;15.80;56.10;;;;;;10309777;28;89609;-53
2024/01/14 05:09:17;;;;;;;;;;;15.80;56.20;;;;;;10327198;28;90351;-52
2024/01/14 05:14:19;;;;;;;;;;;15.90;56.10;;;;;;10330466;28;90008;-53
2024/01/14 05:19:21;;;;;;;;;;;16.00;56.00;;;;;;10328744;28;89653;-53
2024/01/14 05:24:23;;;;;;;;;;;16.00;55.70;;;;;;10335759;28;89873;-51
2024/01/14 05:29:26;;;;;;;;;;;16.10;55.50;;;;;;10331232;28;89588;-52
2024/01/14 05:34:27;;;;;;;;;;;16.10;55.50;;;;;;10330976;28;90061;-53
2024/01/14 05:39:30;;;;;;;;;;;16.10;55.40;;;;;;10333409;28;89018;-53
2024/01/14 05:44:32;;;;;;;;;;;16.00;55.50;;;;;;10335407;28;89039;-53
2024/01/14 05:49:34;;;;;;;;;;;16.20;55.50;;;;;;10332068;28;89027;-52
2024/01/14 05:54:36;;;;;;;;;;;16.40;55.20;;;;;;10333121;28;88362;-52
2024/01/14 05:59:39;;;;;;;;;;;16.70;54.90;;;;;;10330980;28;89310;-51
2024/01/14 06:04:41;;;;;;;;;;;17.00;54.30;;;;;;10337417;28;89581;-52
2024/01/14 06:09:43;;;;;;;;;;;17.30;53.90;;;;;;10331116;28;90387;-51
2024/01/14 06:14:45;;;;;;;;;;;17.40;53.40;;;;;;10329501;28;89337;-53
2024/01/14 06:19:47;;;;;;;;;;;17.70;53.20;;;;;;10323554;28;88774;-52
2024/01/14 06:24:49;;;;;;;;;;;17.80;52.90;;;;;;10328916;28;89354;-54
2024/01/14 06:29:50;;;;;;;;;;;18.00;52.70;;;;;;10332422;28;89629;-53
2024/01/14 06:34:52;;;;;;;;;;;17.90;52.50;;;;;;10331952;28;90801;-52
2024/01/14 06:39:54;;;;;;;;;;;17.90;52.60;;;;;;10329021;28;89392;-56
2024/01/14 06:44:56;;;;;;;;;;;17.80;52.90;;;;;;10334575;28;89498;-51
2024/01/14 06:49:58;;;;;;;;;;;17.80;53.10;;;;;;10330313;28;88819;-51
2024/01/14 06:55:14;;;;;;;;;;;17.80;53.10;;;;;;10331385;28;89358;-52
2024/01/14 07:00:16;;;;;;;;;;;18.00;53.00;;;;;;10327400;28;90112;-50
2024/01/14 07:05:18;;;;;;;;;;;18.10;52.80;;;;;;10325491;28;89314;-53
2024/01/14 07:10:20;;;;;;;;;;;18.20;52.70;;;;;;10324640;28;89051;-53
2024/01/14 07:15:22;;;;;;;;;;;18.30;52.60;;;;;;10331285;28;89907;-51
2024/01/14 07:20:25;;;;;;;;;;;18.40;52.30;;;;;;10329594;28;88824;-52
2024/01/14 07:25:27;;;;;;;;;;;18.40;52.30;;;;;;10324675;28;90034;-51
2024/01/14 07:30:28;;;;;;;;;;;18.40;52.40;;;;;;10329812;28;90155;-53
2024/01/14 07:35:30;;;;;;;;;;;18.30;52.60;;;;;;10331394;28;90151;-54
2024/01/14 07:40:32;;;;;;;;;;;18.20;53.00;;;;;;10330059;28;89010;-54
2024/01/14 07:45:34;;;;;;;;;;;18.20;53.00;;;;;;10325836;28;88990;-55
2024/01/14 07:50:36;;;;;;;;;;;18.20;53.10;;;;;;10328705;28;89960;-53
2024/01/14 07:55:37;;;;;;;;;;;18.10;53.40;;;;;;10329621;28;89313;-52
2024/01/14 08:00:41;;;;;;;;;;;18.00;53.60;;;;;;10325693;28;91552;-52
2024/01/14 08:06:00;;;;;;;;;;;18.10;53.70;;;;;;10326730;28;90200;-52
2024/01/14 08:11:04;;;;;;;;;;;18.20;53.70;;;;;;10329153;28;108681;-51
2024/01/14 08:16:06;;;;;;;;;;;18.30;53.50;;;;;;10338367;28;89565;-49
2024/01/14 08:21:09;;;;;;;;;;;18.30;53.50;;;;;;10331246;28;88958;-49
2024/01/14 08:26:11;;;;;;;;;;;18.20;53.70;;;;;;10330644;28;88672;-52
2024/01/14 08:31:13;;;;;;;;;;;18.20;53.80;;;;;;10327184;28;89968;-49
2024/01/14 08:36:15;;;;;;;;;;;18.20;53.80;;;;;;10324367;28;89018;-51
2024/01/14 08:41:17;;;;;;;;;;;18.30;53.90;;;;;;10324774;28;91158;-62
2024/01/14 08:46:19;;;;;;;;;;;18.20;54.00;;;;;;10325426;28;89032;-49
2024/01/14 08:51:21;;;;;;;;;;;18.10;54.10;;;;;;10331081;28;89096;-51
2024/01/14 08:56:23;;;;;;;;;;;18.10;54.40;;;;;;10333758;28;90020;-50
2024/01/14 09:01:28;;;;;;;;;;;17.90;54.50;;;;;;10337517;28;90070;-50
2024/01/14 09:06:30;;;;;;;;;;;17.80;54.80;;;;;;10330317;28;88926;-53
2024/01/14 09:11:32;;;;;;;;;;;17.70;55.10;;;;;;10333683;28;89469;-54
2024/01/14 09:16:33;;;;;;;;;;;17.60;55.30;;;;;;10335447;28;89325;-52
2024/01/14 09:21:35;;;;;;;;;;;17.50;55.40;;;;;;10333740;28;89013;-47
2024/01/14 09:26:37;;;;;;;;;;;17.40;55.50;;;;;;10347450;28;89576;-44
2024/01/14 09:31:39;;;;;;;;;;;17.30;56.00;;;;;;10334698;28;89921;-47
2024/01/14 09:36:41;;;;;;;;;;;17.20;58.90;;;;;;10334367;28;89019;-46
2024/01/14 09:42:04;;;;;;;;;;;17.20;58.30;;;;;;10329011;28;89649;-45
2024/01/14 09:47:08;;;;;;;;;;;17.20;58.40;;;;;;10328042;28;88720;-47
2024/01/14 09:52:10;;;;;;;;;;;17.10;58.50;;;;;;10326578;28;89043;-49
2024/01/14 09:57:14;;;;;;;;;;;17.10;58.50;;;;;;10328711;28;89619;-47
2024/01/14 10:02:17;;;;;;;;;;;17.10;58.50;;;;;;10327622;28;90292;-48
2024/01/14 10:07:20;;;;;;;;;;;17.30;58.50;;;;;;10335013;28;89361;-47
2024/01/14 10:12:24;;;;;;;;;;;17.50;58.30;;;;;;10327782;28;88995;-47
2024/01/14 10:17:29;;;;;;;;;;;17.80;58.00;;;;;;10321242;28;90029;-46
2024/01/14 10:22:32;;;;;;;;;;;18.10;57.80;;;;;;10330664;28;90506;-46
2024/01/14 10:27:34;;;;;;;;;;;18.30;57.10;;;;;;10311748;28;90041;-47
2024/01/14 10:32:39;;;;;;;;;;;18.50;56.80;;;;;;10331340;28;90009;-48
2024/01/14 10:38:01;;;;;;;;;;;18.60;56.40;;;;;;10318893;28;90959;-48
2024/01/14 10:43:03;;;;;;;;;;;18.80;56.40;;;;;;10327165;28;90841;-47
2024/01/14 10:48:08;;;;;;;;;;;18.80;56.30;;;;;;10336313;28;89162;-47
2024/01/14 10:53:14;;;;;;;;;;;18.90;56.30;;;;;;10329119;28;89120;-47
2024/01/14 10:58:36;;;;;;;;;;;19.10;56.10;;;;;;10333567;28;88846;-48
2024/01/14 11:03:39;;;;;;;;;;;19.10;55.90;;;;;;10315822;28;89587;-46
2024/01/14 11:08:41;;;;;;;;;;;19.20;55.70;;;;;;10329177;28;89162;-46
2024/01/14 11:13:48;;;;;;;;;;;19.20;55.70;;;;;;10326013;28;90878;-48
2024/01/14 11:19:01;;;;;;;;;;;19.10;55.90;;;;;;10304244;28;88993;-44
2024/01/14 11:24:05;;;;;;;;;;;19.00;56.00;;;;;;10318608;28;89945;-51
2024/01/14 11:29:08;;;;;;;;;;;18.80;56.10;;;;;;10304475;28;89302;-52
2024/01/14 11:34:11;;;;;;;;;;;18.70;56.30;;;;;;10316165;28;89850;-72
2024/01/14 11:39:17;;;;;;;;;;;18.60;56.50;;;;;;10321777;28;89128;-47
2024/01/14 11:44:30;;;;;;;;;;;18.40;57.30;;;;;;10322126;28;89240;-47
2024/01/14 11:49:33;;;;;;;;;;;18.30;57.80;;;;;;10314627;28;88871;-50
2024/01/14 11:54:35;;;;;;;;;;;18.20;57.60;;;;;;10307367;28;89229;-49
2024/01/14 11:59:37;;;;;;;;;;;18.00;58.10;;;;;;10324054;28;90217;-50
2024/01/14 12:04:43;;;;;;;;;;;18.00;58.20;;;;;;10323995;28;89696;-50
2024/01/14 12:09:58;;;;;;;;;;;18.00;58.70;;;;;;10320307;28;89180;-50
2024/01/14 12:15:00;;;;;;;;;;;18.10;58.30;;;;;;10325675;28;89435;-48
2024/01/14 12:20:04;;;;;;;;;;;18.20;58.30;;;;;;10315870;28;88349;-50
2024/01/14 12:25:06;;;;;;;;;;;18.40;61.20;;;;;;10315004;28;89926;-48
2024/01/14 12:30:08;;;;;;;;;;;18.50;58.50;;;;;;10327960;28;88989;-49
2024/01/14 12:35:10;;;;;;;;;;;18.60;60.90;;;;;;10332045;28;88109;-44
2024/01/14 12:40:12;;;;;;;;;;;18.50;58.30;;;;;;10325840;28;90321;-47
2024/01/14 12:45:15;;;;;;;;;;;18.50;58.40;;;;;;10320775;28;89115;-47
2024/01/14 12:50:17;;;;;;;;;;;18.40;59.40;;;;;;10316946;28;89220;-45
2024/01/14 12:55:20;;;;;;;;;;;18.40;60.00;;;;;;10332276;28;89060;-45
2024/01/14 13:00:22;;;;;;;;;;;18.50;60.00;;;;;;10313219;28;90137;-42
2024/01/14 13:05:24;;;;;;;;;;;18.50;59.70;;;;;;10325848;28;90122;-44
2024/01/14 13:10:26;;;;;;;;;;;18.60;59.50;;;;;;10318816;28;89355;-49
2024/01/14 13:15:28;;;;;;;;;;;18.60;59.40;;;;;;10333104;28;89047;-46
2024/01/14 13:20:30;;;;;;;;;;;18.50;59.40;;;;;;10302789;28;89189;-48
2024/01/14 13:25:32;;;;;;;;;;;18.40;59.90;;;;;;10325049;28;88897;-45
2024/01/14 13:30:33;;;;;;;;;;;18.50;61.40;;;;;;10321019;28;88166;-46
2024/01/14 13:35:35;;;;;;;;;;;18.50;60.80;;;;;;10335597;28;89126;-49
2024/01/14 13:40:37;;;;;;;;;;;18.60;62.30;;;;;;10332699;28;90100;-47
2024/01/14 13:45:39;;;;;;;;;;;18.80;61.30;;;;;;10332829;28;90779;-46
2024/01/14 13:50:41;;;;;;;;;;;18.90;61.10;;;;;;10334337;28;89897;-45
2024/01/14 13:55:43;;;;;;;;;;;18.90;61.00;;;;;;10328965;28;90150;-49
2024/01/14 14:00:45;;;;;;;;;;;18.80;61.10;;;;;;10327832;28;90360;-48
2024/01/14 14:05:49;;;;;;;;;;;18.70;61.20;;;;;;10326747;28;88910;-45
2024/01/14 14:10:55;;;;;;;;;;;18.70;61.60;;;;;;10328460;28;88983;-49
2024/01/14 14:16:04;;;;;;;;;;;18.80;62.10;;;;;;10333984;28;90183;-50
2024/01/14 14:21:06;;;;;;;;;;;18.80;61.90;;;;;;10329506;28;88327;-50
2024/01/14 14:26:07;;;;;;;;;;;18.80;61.10;;;;;;10332323;28;89958;-48
2024/01/14 14:31:09;;;;;;;;;;;18.60;61.30;;;;;;10326487;28;89369;-50
2024/01/14 14:36:11;;;;;;;;;;;18.50;61.50;;;;;;10329522;28;89556;-48
2024/01/14 14:41:13;;;;;;;;;;;18.40;61.70;;;;;;10330391;28;89385;-50
2024/01/14 14:46:27;;;;;;;;;;;18.30;61.80;;;;;;10331041;28;89111;-50
2024/01/14 14:51:29;;;;;;;;;;;18.20;62.00;;;;;;10329660;28;89509;-51
2024/01/14 14:56:41;;;;;;;;;;;18.10;62.20;;;;;;10318523;28;89903;-48
2024/01/14 15:01:43;;;;;;;;;;;18.10;62.30;;;;;;10329560;28;89949;-46
2024/01/14 15:06:46;;;;;;;;;;;18.10;62.40;;;;;;10327359;28;89488;-50
2024/01/14 15:11:48;;;;;;;;;;;18.20;62.60;;;;;;10329346;28;88424;-46
2024/01/14 15:16:51;;;;;;;;;;;18.20;61.80;;;;;;10327684;28;89683;-49
2024/01/14 15:21:53;;;;;;;;;;;18.30;61.60;;;;;;10323735;28;90210;-51
2024/01/14 15:26:55;;;;;;;;;;;18.30;61.30;;;;;;10331072;28;90393;-45
2024/01/14 15:31:56;;;;;;;;;;;18.30;61.10;;;;;;10324842;28;90090;-48
2024/01/14 15:36:59;;;;;;;;;;;18.30;61.00;;;;;;10328671;28;89128;-46
2024/01/14 15:42:00;;;;;;;;;;;18.20;61.00;;;;;;10330470;28;89023;-47
2024/01/14 15:47:03;;;;;;;;;;;18.20;61.10;;;;;;10325518;28;90119;-50
2024/01/14 15:52:05;;;;;;;;;;;18.20;61.00;;;;;;10327915;28;89383;-47
2024/01/14 15:57:07;;;;;;;;;;;18.40;60.80;;;;;;10317456;28;89071;-47
2024/01/14 16:02:09;;;;;;;;;;;18.60;60.80;;;;;;10331314;28;88540;-49
2024/01/14 16:07:15;;;;;;;;;;;18.70;60.40;;;;;;10332171;28;89385;-46
2024/01/14 16:12:17;;;;;;;;;;;18.90;60.30;;;;;;10324108;28;89432;-48
2024/01/14 16:17:20;;;;;;;;;;;18.90;60.20;;;;;;10332379;28;90663;-50
2024/01/14 16:22:22;;;;;;;;;;;18.80;60.10;;;;;;10330925;28;89587;-47
2024/01/14 16:27:24;;;;;;;;;;;18.80;60.40;;;;;;10328575;28;89088;-49
2024/01/14 16:32:26;;;;;;;;;;;18.80;60.50;;;;;;10328436;28;90042;-50
2024/01/14 16:37:28;;;;;;;;;;;18.80;60.50;;;;;;10329160;28;90001;-47
2024/01/14 16:42:31;;;;;;;;;;;18.70;60.60;;;;;;10338098;28;90763;-49
2024/01/14 16:47:33;;;;;;;;;;;18.70;61.00;;;;;;10319503;28;89144;-50
2024/01/14 16:52:35;;;;;;;;;;;18.70;61.20;;;;;;10326568;28;88525;-48
2024/01/14 16:57:37;;;;;;;;;;;18.80;63.60;;;;;;10325606;28;90139;-50
2024/01/14 17:02:39;;;;;;;;;;;18.80;66.50;;;;;;10332267;28;89973;-50
2024/01/14 17:07:42;;;;;;;;;;;18.90;66.10;;;;;;10326139;28;90807;-48
2024/01/14 17:12:44;;;;;;;;;;;18.90;66.80;;;;;;10336778;28;89769;-48
2024/01/14 17:17:46;;;;;;;;;;;18.90;64.80;;;;;;10333422;28;88942;-53
2024/01/14 17:22:48;;;;;;;;;;;18.90;63.60;;;;;;10324489;28;90121;-50
2024/01/14 17:27:50;;;;;;;;;;;19.00;63.50;;;;;;10327068;28;88878;-46
2024/01/14 17:32:51;;;;;;;;;;;19.10;63.80;;;;;;10340756;28;89114;-46
2024/01/14 17:37:53;;;;;;;;;;;19.10;63.90;;;;;;10331767;28;89970;-50
2024/01/14 17:42:55;;;;;;;;;;;19.00;63.80;;;;;;10346152;28;89543;-48
2024/01/14 17:47:57;;;;;;;;;;;19.20;66.30;;;;;;10331021;28;89601;-47
2024/01/14 17:52:59;;;;;;;;;;;19.30;66.70;;;;;;10345367;28;89567;-48
2024/01/14 17:58:07;;;;;;;;;;;19.20;65.50;;;;;;10336165;28;89814;-50
2024/01/14 18:03:09;;;;;;;;;;;19.10;64.70;;;;;;10326545;28;89192;-49
2024/01/14 18:08:11;;;;;;;;;;;19.10;65.50;;;;;;10332678;28;88947;-47
2024/01/14 18:13:13;;;;;;;;;;;19.20;65.30;;;;;;10331193;28;90312;-47
2024/01/14 18:18:16;;;;;;;;;;;19.20;64.60;;;;;;10333361;28;88974;-48
2024/01/14 18:23:18;;;;;;;;;;;19.20;64.20;;;;;;10340414;28;89073;-46
2024/01/14 18:28:20;;;;;;;;;;;19.10;63.90;;;;;;10332957;28;90021;-46
2024/01/14 18:33:22;;;;;;;;;;;19.00;63.40;;;;;;10325091;28;88733;-46
2024/01/14 18:38:27;;;;;;;;;;;19.00;63.40;;;;;;10326692;28;89139;-46
2024/01/14 18:43:29;;;;;;;;;;;18.90;63.40;;;;;;10324795;28;90615;-46
2024/01/14 18:48:31;;;;;;;;;;;18.80;63.30;;;;;;10311329;28;89813;-46
2024/01/14 18:53:33;;;;;;;;;;;18.80;63.30;;;;;;10328370;28;88224;-48
2024/01/14 18:58:35;;;;;;;;;;;18.70;63.50;;;;;;10336351;28;89349;-47
2024/01/14 19:03:38;;;;;;;;;;;18.70;63.10;;;;;;10324410;28;89023;-47
2024/01/14 19:08:40;;;;;;;;;;;18.80;62.90;;;;;;10322882;28;89101;-46
2024/01/14 19:13:42;;;;;;;;;;;18.90;62.70;;;;;;10333551;28;89247;-46
2024/01/14 19:18:44;;;;;;;;;;;18.90;62.70;;;;;;10328420;28;89102;-46
2024/01/14 19:23:50;;;;;;;;;;;18.90;62.80;;;;;;10334054;28;88362;-49
2024/01/14 19:28:52;;;;;;;;;;;18.90;63.90;;;;;;10328851;28;90196;-46
2024/01/14 19:33:53;;;;;;;;;;;18.90;62.80;;;;;;10334193;28;90033;-49
2024/01/14 19:38:56;;;;;;;;;;;18.90;62.80;;;;;;10328638;28;92108;-46
2024/01/14 19:43:57;;;;;;;;;;;18.90;62.80;;;;;;10328931;28;90392;-45
2024/01/14 19:48:59;;;;;;;;;;;18.80;62.90;;;;;;10325237;28;89960;-44
2024/01/14 19:54:03;;;;;;;;;;;18.90;63.10;;;;;;10325244;28;89069;-48
2024/01/14 19:59:05;;;;;;;;;;;18.90;63.00;;;;;;10334683;28;89040;-60
2024/01/14 20:04:11;;;;;;;;;;;18.90;63.00;;;;;;10324282;28;88995;-46
2024/01/14 20:09:13;;;;;;;;;;;18.80;63.10;;;;;;10323729;28;94423;-50
2024/01/14 20:14:16;;;;;;;;;;;18.80;63.30;;;;;;10323484;28;93271;-46
2024/01/14 20:19:18;;;;;;;;;;;18.80;63.30;;;;;;10317319;28;93457;-48
2024/01/14 20:24:20;;;;;;;;;;;18.80;63.20;;;;;;10320112;28;94625;-48
2024/01/14 20:29:22;;;;;;;;;;;18.80;63.30;;;;;;10284282;28;96792;-48
2024/01/14 20:34:25;;;;;;;;;;;18.80;63.40;;;;;;10316019;28;94216;-45
2024/01/14 20:39:27;;;;;;;;;;;18.90;63.20;;;;;;10311263;28;94491;-49
2024/01/14 20:44:29;;;;;;;;;;;19.00;62.90;;;;;;10322091;28;93761;-48
2024/01/14 20:49:31;;;;;;;;;;;19.00;62.60;;;;;;10324686;28;93306;-49
2024/01/14 20:54:34;;;;;;;;;;;19.00;62.60;;;;;;10329678;28;94318;-48
2024/01/14 20:59:36;;;;;;;;;;;19.00;62.70;;;;;;10318741;28;94630;-46
2024/01/14 21:04:37;;;;;;;;;;;18.90;62.80;;;;;;10318445;28;93347;-47
2024/01/14 21:09:42;;;;;;;;;;;18.80;63.00;;;;;;10331408;28;94518;-50
2024/01/14 21:14:44;;;;;;;;;;;18.80;63.30;;;;;;10329531;28;93469;-48
2024/01/14 21:19:46;;;;;;;;;;;18.80;63.30;;;;;;10326613;28;96797;-49
2024/01/14 21:24:49;;;;;;;;;;;18.90;63.20;;;;;;10321257;28;94299;-50
2024/01/14 21:29:51;;;;;;;;;;;19.10;62.90;;;;;;10330837;28;93570;-48
2024/01/14 21:34:53;;;;;;;;;;;19.30;62.50;;;;;;10322693;28;94378;-44
2024/01/14 21:39:55;;;;;;;;;;;19.40;61.90;;;;;;10326463;28;95250;-48
2024/01/14 21:45:02;;;;;;;;;;;19.50;61.40;;;;;;10330260;28;93527;-47
2024/01/14 21:50:04;;;;;;;;;;;19.60;60.90;;;;;;10324091;28;93476;-48
2024/01/14 21:55:06;;;;;;;;;;;19.60;60.30;;;;;;10322758;28;92692;-49
2024/01/14 22:00:09;;;;;;;;;;;19.60;59.80;;;;;;10327069;28;93447;-50
2024/01/14 22:05:11;;;;;;;;;;;19.50;59.20;;;;;;10319983;28;93450;-48
2024/01/14 22:10:13;;;;;;;;;;;19.40;58.90;;;;;;10324448;28;97341;-49
2024/01/14 22:15:15;;;;;;;;;;;19.20;58.60;;;;;;10330041;28;94492;-50
2024/01/14 22:20:17;;;;;;;;;;;19.10;58.40;;;;;;10327820;28;93798;-49
2024/01/14 22:25:19;;;;;;;;;;;18.90;58.30;;;;;;10324512;28;94418;-48
2024/01/14 22:30:21;;;;;;;;;;;18.80;58.10;;;;;;10330096;28;94490;-50
2024/01/14 22:35:25;;;;;;;;;;;18.70;57.90;;;;;;10324415;28;93994;-47
2024/01/14 22:40:29;;;;;;;;;;;18.60;58.00;;;;;;10329300;28;94105;-48
2024/01/14 22:45:32;;;;;;;;;;;18.50;57.80;;;;;;10326240;28;93699;-46
2024/01/14 22:50:34;;;;;;;;;;;18.40;57.70;;;;;;10327195;28;94399;-49
2024/01/14 22:55:36;;;;;;;;;;;18.30;57.60;;;;;;10328685;28;94634;-47
2024/01/14 23:00:38;;;;;;;;;;;18.20;57.50;;;;;;10324713;28;95834;-50
2024/01/14 23:05:40;;;;;;;;;;;18.10;57.40;;;;;;10328380;28;93166;-45
2024/01/14 23:10:42;;;;;;;;;;;18.00;57.20;;;;;;10327924;28;94802;-47
2024/01/14 23:15:44;;;;;;;;;;;17.90;57.30;;;;;;10323742;28;94247;-49
2024/01/14 23:20:46;;;;;;;;;;;17.80;57.50;;;;;;10324170;28;94527;-49
2024/01/14 23:25:48;;;;;;;;;;;17.80;58.10;;;;;;10326209;28;93366;-46
2024/01/14 23:30:49;;;;;;;;;;;17.70;58.30;;;;;;10320604;28;92769;-49
2024/01/14 23:35:51;;;;;;;;;;;17.60;58.00;;;;;;10327136;28;92036;-44
2024/01/14 23:40:53;;;;;;;;;;;17.60;57.90;;;;;;10325118;28;93414;-49
2024/01/14 23:45:55;;;;;;;;;;;17.60;57.70;;;;;;10325803;28;95597;-46
2024/01/14 23:50:57;;;;;;;;;;;17.50;57.40;;;;;;10322048;28;96769;-45
2024/01/14 23:55:59;;;;;;;;;;;17.50;57.30;;;;;;10325774;28;94444;-45
